Time;durP1;ratioP1;P1;durP2;ratioP2;P2;SDS_P1;SDS_P2;PMS_P1;PMS_P2;Temp;Humidity;BMP_temperature;BMP_pressure;BME280_temperature;BME280_humidity;BME280_pressure;Samples;Min_cycle;Max_cycle;Signal;HPM_P1;HPM_P2
2023/05/14 00:00:00;;;;;;;9.63;8.87;;;;;;;12.10;100.00;98098.59;5074139;28;20205;-78
2023/05/14 00:02:26;;;;;;;10.53;9.53;;;;;;;12.14;100.00;98101.59;5074061;28;20687;-78
2023/05/14 00:04:53;;;;;;;9.17;8.30;;;;;;;12.15;100.00;98100.56;5075025;28;20210;-78
2023/05/14 00:07:19;;;;;;;9.60;8.80;;;;;;;12.10;100.00;98089.75;5074927;28;20230;-78
2023/05/14 00:09:46;;;;;;;10.60;9.80;;;;;;;12.24;100.00;98091.19;5075150;28;20204;-78
2023/05/14 00:12:12;;;;;;;10.07;9.10;;;;;;;12.04;100.00;98085.34;5074208;28;20213;-78
2023/05/14 00:14:38;;;;;;;9.40;8.70;;;;;;;12.05;100.00;98081.63;5075152;28;20206;-78
2023/05/14 00:17:05;;;;;;;9.37;8.57;;;;;;;11.98;100.00;98081.72;5073528;28;20237;-77
2023/05/14 00:19:32;;;;;;;9.20;8.40;;;;;;;12.07;100.00;98079.59;5074985;28;20690;-78
2023/05/14 00:21:58;;;;;;;9.27;8.47;;;;;;;11.95;100.00;98074.22;5076049;28;20209;-78
2023/05/14 00:24:24;;;;;;;9.63;8.80;;;;;;;11.92;100.00;98072.00;5076237;28;20208;-79
2023/05/14 00:26:51;;;;;;;9.83;8.93;;;;;;;11.93;100.00;98067.50;5075091;28;20234;-78
2023/05/14 00:29:17;;;;;;;9.97;9.13;;;;;;;11.98;100.00;98073.75;5075792;28;20205;-79
2023/05/14 00:31:43;;;;;;;9.53;8.73;;;;;;;11.95;100.00;98060.91;5076114;28;20216;-79
2023/05/14 00:34:10;;;;;;;9.63;8.83;;;;;;;11.90;100.00;98063.44;5076329;28;20289;-79
2023/05/14 00:36:36;;;;;;;9.27;8.47;;;;;;;11.85;100.00;98059.81;5076038;28;20221;-79
2023/05/14 00:39:03;;;;;;;9.80;9.00;;;;;;;11.79;100.00;98058.84;5075388;28;20303;-78
2023/05/14 00:41:29;;;;;;;9.50;8.67;;;;;;;11.90;100.00;98057.28;5075740;28;20284;-79
2023/05/14 00:43:56;;;;;;;9.57;8.67;;;;;;;11.90;100.00;98062.59;5075818;28;20201;-79
2023/05/14 00:46:22;;;;;;;10.20;9.40;;;;;;;11.86;100.00;98061.44;5079187;28;20242;-79
2023/05/14 00:48:49;;;;;;;9.53;8.63;;;;;;;11.89;100.00;98058.31;5080243;28;20206;-78
2023/05/14 00:51:17;;;;;;;9.57;8.77;;;;;;;11.93;100.00;98052.31;5061832;28;20663;-79
2023/05/14 00:53:45;;;;;;;9.53;8.63;;;;;;;11.83;100.00;98052.03;5078832;28;20210;-79
2023/05/14 00:56:12;;;;;;;9.73;8.80;;;;;;;11.90;100.00;98049.28;5079049;28;20237;-79
2023/05/14 00:58:38;;;;;;;9.50;8.60;;;;;;;11.89;100.00;98055.66;5079026;28;20666;-79
2023/05/14 01:01:05;;;;;;;9.63;8.77;;;;;;;11.84;100.00;98053.66;5078710;28;20214;-79
2023/05/14 01:03:32;;;;;;;9.73;8.93;;;;;;;11.78;100.00;98043.09;5078953;28;20214;-80
2023/05/14 01:06:22;;;;;;;9.93;9.03;;;;;;;11.71;100.00;98045.84;5078565;28;20221;-79
2023/05/14 01:09:07;;;;;;;8.60;7.90;;;;;;;11.74;100.00;98048.06;5078939;28;20194;-79
2023/05/14 01:11:40;;;;;;;10.47;9.57;;;;;;;11.62;100.00;98039.22;5078720;28;20189;-79
2023/05/14 01:14:37;;;;;;;9.67;8.87;;;;;;;11.63;100.00;98048.84;5078152;28;20196;-79
2023/05/14 01:17:05;;;;;;;9.30;8.50;;;;;;;11.67;100.00;98041.22;5061897;28;20276;-79
2023/05/14 01:19:41;;;;;;;10.23;9.13;;;;;;;11.61;100.00;98040.25;5077841;28;20236;-79
2023/05/14 01:22:08;;;;;;;9.17;8.47;;;;;;;11.59;100.00;98036.16;5078304;28;20200;-79
2023/05/14 01:24:34;;;;;;;10.00;9.10;;;;;;;11.60;100.00;98030.66;5078470;28;20204;-79
2023/05/14 01:27:18;;;;;;;9.90;9.10;;;;;;;11.57;100.00;98030.28;5077437;28;20229;-79
2023/05/14 01:30:03;;;;;;;9.30;8.50;;;;;;;11.54;100.00;98038.69;5078230;28;20221;-79
2023/05/14 01:32:31;;;;;;;9.93;9.03;;;;;;;11.48;100.00;98035.06;5078274;28;20212;-79
2023/05/14 01:35:00;;;;;;;10.63;9.53;;;;;;;11.47;100.00;98032.63;5078799;28;20664;-80
2023/05/14 01:37:29;;;;;;;10.17;9.17;;;;;;;11.47;100.00;98044.09;5077695;28;20205;-79
2023/05/14 01:39:57;;;;;;;9.70;8.70;;;;;;;11.45;100.00;98034.72;5077878;28;20204;-79
2023/05/14 01:42:23;;;;;;;9.03;8.33;;;;;;;11.33;100.00;98032.00;5078347;28;20209;-79
2023/05/14 01:44:50;;;;;;;9.70;8.90;;;;;;;11.35;100.00;98026.47;5078857;28;20205;-79
2023/05/14 01:47:16;;;;;;;10.47;9.57;;;;;;;11.39;100.00;98028.44;5078533;28;20238;-78
2023/05/14 01:49:43;;;;;;;10.30;9.07;;;;;;;11.46;100.00;98023.84;5078865;28;20200;-79
2023/05/14 01:52:09;;;;;;;10.27;9.30;;;;;;;11.45;100.00;98024.91;5078594;28;20213;-78
2023/05/14 01:54:36;;;;;;;9.63;8.80;;;;;;;11.50;100.00;98019.72;5077323;28;20255;-79
2023/05/14 01:57:02;;;;;;;9.97;9.07;;;;;;;11.43;100.00;98034.16;5076742;28;20230;-79
2023/05/14 01:59:29;;;;;;;9.80;9.00;;;;;;;11.45;100.00;98027.56;5077534;28;20205;-79
2023/05/14 02:01:55;;;;;;;10.30;9.30;;;;;;;11.33;100.00;98029.34;5077624;28;20213;-80
2023/05/14 02:04:22;;;;;;;10.07;9.17;;;;;;;11.31;100.00;98034.09;5077347;28;20207;-79
2023/05/14 02:06:48;;;;;;;10.33;9.43;;;;;;;11.23;100.00;98032.53;5077316;28;20224;-79
2023/05/14 02:09:14;;;;;;;9.77;8.83;;;;;;;11.23;100.00;98033.56;5077560;28;20204;-79
2023/05/14 02:11:41;;;;;;;10.03;9.13;;;;;;;11.17;100.00;98039.78;5076834;28;20631;-80
2023/05/14 02:14:07;;;;;;;9.57;8.73;;;;;;;11.20;100.00;98034.81;5077252;28;20211;-79
2023/05/14 02:16:33;;;;;;;10.00;9.20;;;;;;;11.17;100.00;98035.25;5076807;28;20225;-79
2023/05/14 02:19:00;;;;;;;9.90;9.00;;;;;;;11.17;100.00;98035.25;5077038;28;20201;-79
2023/05/14 02:21:26;;;;;;;9.80;8.90;;;;;;;11.10;100.00;98035.34;5077102;28;20218;-79
2023/05/14 02:23:53;;;;;;;10.07;9.03;;;;;;;11.06;100.00;98036.03;5077454;28;20205;-79
2023/05/14 02:26:20;;;;;;;9.70;8.90;;;;;;;11.09;100.00;98041.69;5076395;28;20271;-79
2023/05/14 02:28:46;;;;;;;9.67;8.90;;;;;;;11.05;100.00;98034.41;5076857;28;20205;-79
2023/05/14 02:31:13;;;;;;;10.30;9.40;;;;;;;11.01;100.00;98035.88;5076751;28;20263;-79
2023/05/14 02:33:39;;;;;;;9.80;8.90;;;;;;;11.02;100.00;98032.16;5076852;28;20565;-79
2023/05/14 02:36:06;;;;;;;9.53;8.73;;;;;;;11.05;100.00;98035.19;5076673;28;20221;-79
2023/05/14 02:38:32;;;;;;;9.70;8.90;;;;;;;11.10;100.00;98030.00;5076561;28;20548;-79
2023/05/14 02:40:58;;;;;;;9.83;8.93;;;;;;;11.05;100.00;98031.75;5077020;28;20571;-79
2023/05/14 02:43:25;;;;;;;9.87;8.87;;;;;;;11.06;100.00;98038.69;5077429;28;20570;-79
2023/05/14 02:45:51;;;;;;;9.83;9.03;;;;;;;10.94;100.00;98035.94;5077821;28;20229;-78
2023/05/14 02:48:17;;;;;;;9.50;8.80;;;;;;;10.93;100.00;98034.31;5077651;28;20211;-79
2023/05/14 02:50:44;;;;;;;9.97;8.93;;;;;;;11.10;100.00;98035.34;5077945;28;20208;-79
2023/05/14 02:53:10;;;;;;;10.03;9.23;;;;;;;11.04;100.00;98041.56;5076790;28;20200;-79
2023/05/14 02:55:37;;;;;;;9.90;8.93;;;;;;;10.93;100.00;98034.31;5075767;28;20703;-79
2023/05/14 02:58:03;;;;;;;9.17;8.47;;;;;;;10.97;100.00;98042.66;5076195;28;20214;-79
2023/05/14 03:00:30;;;;;;;9.83;9.03;;;;;;;10.96;100.00;98044.50;5076831;28;20205;-79
2023/05/14 03:02:56;;;;;;;10.03;9.23;;;;;;;10.89;100.00;98049.09;5076415;28;20259;-79
2023/05/14 03:05:22;;;;;;;10.77;9.77;;;;;;;10.91;100.00;98044.34;5076263;28;20231;-79
2023/05/14 03:07:53;;;;;;;9.70;8.90;;;;;;;10.95;100.00;98050.06;5075755;28;20228;-79
2023/05/14 03:10:20;;;;;;;10.60;9.57;;;;;;;10.92;100.00;98042.53;5075571;28;20200;-79
2023/05/14 03:12:46;;;;;;;10.30;9.40;;;;;;;10.89;100.00;98050.94;5075521;28;20209;-79
2023/05/14 03:15:13;;;;;;;9.47;8.67;;;;;;;10.96;100.00;98046.38;5075719;28;20211;-79
2023/05/14 03:17:39;;;;;;;9.40;8.50;;;;;;;10.92;100.00;98042.53;5075298;28;20683;-79
2023/05/14 03:20:06;;;;;;;9.70;8.87;;;;;;;10.78;100.00;98047.16;5075896;28;20207;-79
2023/05/14 03:22:32;;;;;;;10.50;9.60;;;;;;;10.72;100.00;98041.91;5075625;28;20205;-79
2023/05/14 03:24:59;;;;;;;10.57;9.57;;;;;;;10.73;100.00;98039.03;5076109;28;20212;-78
2023/05/14 03:27:25;;;;;;;10.40;9.50;;;;;;;10.76;100.00;98041.25;5076425;28;20255;-78
2023/05/14 03:29:52;;;;;;;10.53;9.63;;;;;;;10.76;100.00;98043.09;5076243;28;20204;-78
2023/05/14 03:32:18;;;;;;;10.67;9.77;;;;;;;10.83;100.00;98027.88;5075968;28;20223;-78
2023/05/14 03:34:44;;;;;;;11.60;10.03;;;;;;;10.86;100.00;98033.56;5058455;28;20235;-79
2023/05/14 03:37:11;;;;;;;9.57;8.77;;;;;;;10.84;100.00;98032.16;5076004;28;20225;-79
2023/05/14 03:39:37;;;;;;;10.53;9.60;;;;;;;10.85;100.00;98041.75;5075177;28;20204;-79
2023/05/14 03:42:04;;;;;;;10.27;9.27;;;;;;;10.87;100.00;98034.41;5075568;28;20205;-78
2023/05/14 03:44:30;;;;;;;10.50;9.53;;;;;;;10.87;100.00;98037.06;5075742;28;20204;-78
2023/05/14 03:46:57;;;;;;;10.70;9.80;;;;;;;10.81;100.00;98044.06;5075625;28;20227;-78
2023/05/14 03:49:23;;;;;;;10.33;9.43;;;;;;;10.84;100.00;98030.34;5076151;28;20216;-79
2023/05/14 03:51:49;;;;;;;10.10;9.27;;;;;;;10.80;100.00;98034.47;5075514;28;20212;-79
2023/05/14 03:54:16;;;;;;;10.33;9.47;;;;;;;10.84;100.00;98030.34;5075618;28;20273;-78
2023/05/14 03:56:42;;;;;;;10.50;9.57;;;;;;;10.82;100.00;98035.03;5074664;28;20228;-79
2023/05/14 03:59:08;;;;;;;9.53;8.73;;;;;;;10.79;100.00;98024.88;5075331;28;20206;-78
2023/05/14 04:01:35;;;;;;;10.23;9.33;;;;;;;10.71;100.00;98029.66;5074826;28;20210;-79
2023/05/14 04:04:01;;;;;;;10.57;9.57;;;;;;;10.73;100.00;98028.38;5074371;28;20668;-79
2023/05/14 04:06:27;;;;;;;10.73;9.83;;;;;;;10.77;100.00;98026.91;5074770;28;20683;-78
2023/05/14 04:08:54;;;;;;;10.13;9.13;;;;;;;10.75;100.00;98030.84;5074808;28;20217;-78
2023/05/14 04:11:21;;;;;;;9.47;8.70;;;;;;;10.80;100.00;98033.63;5074663;28;20200;-79
2023/05/14 04:13:47;;;;;;;9.70;8.80;;;;;;;10.90;100.00;98032.09;5074411;28;20208;-78
2023/05/14 04:16:13;;;;;;;9.93;9.00;;;;;;;10.71;100.00;98041.09;5073956;28;20236;-78
2023/05/14 04:18:40;;;;;;;9.70;8.90;;;;;;;10.76;100.00;98038.59;5074501;28;20205;-78
2023/05/14 04:21:06;;;;;;;10.23;9.33;;;;;;;10.78;100.00;98030.41;5074143;28;20213;-78
2023/05/14 04:23:33;;;;;;;9.60;8.77;;;;;;;10.75;100.00;98030.84;5074890;28;20205;-78
2023/05/14 04:25:59;;;;;;;9.20;8.37;;;;;;;10.79;100.00;98034.69;5074425;28;20227;-78
2023/05/14 04:28:25;;;;;;;9.13;8.43;;;;;;;10.82;100.00;98028.94;5074260;28;20200;-78
2023/05/14 04:30:52;;;;;;;8.80;8.00;;;;;;;10.75;100.00;98036.16;5074492;28;20211;-78
2023/05/14 04:33:18;;;;;;;8.40;7.70;;;;;;;10.76;100.00;98033.28;5074308;28;20205;-78
2023/05/14 04:35:45;;;;;;;8.50;7.80;;;;;;;10.85;100.00;98033.78;5074108;28;20235;-78
2023/05/14 04:38:13;;;;;;;8.67;7.87;;;;;;;10.91;100.00;98030.25;5073991;28;20200;-78
2023/05/14 04:40:40;;;;;;;8.73;7.93;;;;;;;10.99;100.00;98035.28;5074118;28;20208;-78
2023/05/14 04:43:06;;;;;;;8.93;8.10;;;;;;;10.91;100.00;98030.25;5075210;28;20301;-78
2023/05/14 04:45:33;;;;;;;9.53;8.73;;;;;;;10.87;100.00;98035.19;5057188;28;20270;-78
2023/05/14 04:47:59;;;;;;;9.27;8.33;;;;;;;10.94;100.00;98027.13;5074995;28;20235;-78
2023/05/14 04:50:26;;;;;;;9.10;8.30;;;;;;;10.90;100.00;98018.81;5075186;28;20227;-78
2023/05/14 04:52:54;;;;;;;9.03;8.23;;;;;;;11.00;100.00;98029.72;5075142;28;20610;-79
2023/05/14 04:55:21;;;;;;;9.20;8.50;;;;;;;10.93;100.00;98022.06;5074018;28;20298;-78
2023/05/14 04:57:48;;;;;;;8.60;7.83;;;;;;;11.02;100.00;98027.69;5073755;28;20200;-78
2023/05/14 05:00:16;;;;;;;9.53;8.60;;;;;;;10.90;100.00;98031.28;5073644;28;20223;-78
2023/05/14 05:02:42;;;;;;;9.17;8.27;;;;;;;10.87;100.00;98042.38;5074095;28;20677;-78
2023/05/14 05:05:09;;;;;;;9.03;8.10;;;;;;;11.00;100.00;98039.56;5073791;28;20576;-78
2023/05/14 05:07:35;;;;;;;9.23;8.53;;;;;;;10.96;100.00;98035.72;5073572;28;20221;-78
2023/05/14 05:10:02;;;;;;;11.13;9.57;;;;;;;10.94;100.00;98032.47;5073698;28;20679;-78
2023/05/14 05:12:29;;;;;;;10.10;9.20;;;;;;;10.93;100.00;98028.19;5073895;28;20209;-78
2023/05/14 05:14:58;;;;;;;8.60;7.80;;;;;;;11.08;100.00;98026.78;5073521;28;20220;-78
2023/05/14 05:17:25;;;;;;;8.73;8.03;;;;;;;11.05;100.00;98032.53;5073357;28;20209;-78
2023/05/14 05:19:51;;;;;;;9.43;8.57;;;;;;;10.93;100.00;98028.19;5073824;28;20228;-78
2023/05/14 05:22:18;;;;;;;8.60;7.80;;;;;;;10.84;100.00;98032.16;5073828;28;20207;-78
2023/05/14 05:24:45;;;;;;;9.13;8.43;;;;;;;10.75;100.00;98036.97;5074052;28;20262;-78
2023/05/14 05:27:11;;;;;;;8.83;8.03;;;;;;;10.83;100.00;98043.84;5073358;28;20231;-78
2023/05/14 05:29:37;;;;;;;9.20;8.37;;;;;;;10.98;100.00;98039.78;5073995;28;20201;-78
2023/05/14 05:32:04;;;;;;;9.10;8.30;;;;;;;10.97;100.00;98045.34;5074036;28;20212;-78
2023/05/14 05:34:31;;;;;;;9.27;8.37;;;;;;;10.92;100.00;98026.56;5077479;28;20212;-78
2023/05/14 05:36:57;;;;;;;9.27;8.47;;;;;;;10.88;100.00;98028.88;5076726;28;20232;-78
2023/05/14 05:39:23;;;;;;;9.10;8.30;;;;;;;10.98;100.00;98033.66;5077791;28;20688;-78
2023/05/14 05:41:50;;;;;;;9.17;8.37;;;;;;;10.88;100.00;98023.53;5077781;28;20204;-78
2023/05/14 05:44:16;;;;;;;8.77;8.07;;;;;;;10.99;100.00;98022.78;5078487;28;20211;-78
2023/05/14 05:46:43;;;;;;;8.17;7.37;;;;;;;10.92;100.00;98026.56;5078192;28;20225;-78
2023/05/14 05:49:09;;;;;;;8.50;7.80;;;;;;;11.06;100.00;98022.72;5078702;28;20288;-78
2023/05/14 05:51:35;;;;;;;8.87;8.17;;;;;;;10.90;100.00;98025.94;5060394;28;20204;-78
2023/05/14 05:54:02;;;;;;;8.80;8.10;;;;;;;10.93;100.00;98032.72;5077521;28;20212;-78
2023/05/14 05:56:28;;;;;;;9.60;8.70;;;;;;;11.00;100.00;98028.94;5077028;28;20235;-78
2023/05/14 05:58:55;;;;;;;8.87;8.03;;;;;;;11.14;100.00;98033.06;5076879;28;20208;-78
2023/05/14 06:01:21;;;;;;;8.73;8.03;;;;;;;10.90;100.00;98028.63;5085661;28;20200;-78
2023/05/14 06:03:47;;;;;;;8.70;7.90;;;;;;;10.92;100.00;98034.53;5097088;28;20569;-78
2023/05/14 06:06:14;;;;;;;8.60;7.80;;;;;;;11.09;100.00;98035.59;5096744;28;20250;-78
2023/05/14 06:08:40;;;;;;;8.17;7.37;;;;;;;11.27;100.00;98039.03;5097144;28;20223;-78
2023/05/14 06:11:08;;;;;;;7.57;6.87;;;;;;;11.35;100.00;98047.75;5096805;28;20284;-78
2023/05/14 06:13:34;;;;;;;9.23;8.33;;;;;;;11.08;100.00;98042.75;5097380;28;20204;-78
2023/05/14 06:16:00;;;;;;;8.27;7.57;;;;;;;11.00;100.00;98036.91;5096872;28;20242;-78
2023/05/14 06:18:27;;;;;;;8.67;7.97;;;;;;;11.11;100.00;98041.47;5096878;28;20207;-78
2023/05/14 06:20:55;;;;;;;8.47;7.77;;;;;;;11.18;100.00;98043.03;5096590;28;20212;-78
2023/05/14 06:23:22;;;;;;;7.73;7.10;;;;;;;11.17;100.00;98043.25;5097214;28;20222;-78
2023/05/14 06:25:50;;;;;;;8.77;7.97;;;;;;;11.16;100.00;98038.97;5096655;28;20228;-78
2023/05/14 06:28:16;;;;;;;8.50;7.70;;;;;;;11.23;100.00;98037.84;5096587;28;20228;-78
2023/05/14 06:30:42;;;;;;;8.23;7.40;;;;;;;11.30;100.00;98034.31;5096987;28;20210;-78
2023/05/14 06:33:09;;;;;;;7.83;7.13;;;;;;;11.43;100.00;98045.59;5096612;28;20210;-78
2023/05/14 06:35:35;;;;;;;8.57;7.87;;;;;;;11.37;100.00;98030.53;5096360;28;20228;-78
2023/05/14 06:38:02;;;;;;;8.37;7.53;;;;;;;11.40;100.00;98039.91;5096010;28;20264;-79
2023/05/14 06:40:28;;;;;;;8.83;8.13;;;;;;;11.51;100.00;98047.94;5096026;28;20257;-78
2023/05/14 06:42:55;;;;;;;9.37;8.37;;;;;;;11.62;100.00;98033.91;5096953;28;20205;-78
2023/05/14 06:45:21;;;;;;;8.33;7.63;;;;;;;11.77;100.00;98036.97;5098187;28;20223;-78
2023/05/14 06:47:47;;;;;;;8.33;7.63;;;;;;;11.69;100.00;98036.47;5097763;28;20223;-78
2023/05/14 06:50:22;;;;;;;8.07;7.37;;;;;;;11.68;100.00;98029.53;5097819;28;20246;-78
2023/05/14 06:52:48;;;;;;;7.93;7.23;;;;;;;11.76;100.00;98038.00;5097695;28;20188;-78
2023/05/14 06:55:14;;;;;;;8.30;7.60;;;;;;;11.76;100.00;98038.00;5096104;28;22437;-79
2023/05/14 06:57:41;;;;;;;8.77;8.00;;;;;;;11.84;100.00;98031.56;5096315;28;20200;-78
2023/05/14 07:00:08;;;;;;;8.50;7.57;;;;;;;11.61;100.00;98037.59;5096040;28;20243;-78
2023/05/14 07:02:34;;;;;;;9.20;8.30;;;;;;;11.81;100.00;98032.00;5095890;28;20212;-78
2023/05/14 07:05:00;;;;;;;8.97;8.17;;;;;;;11.77;100.00;98031.66;5095739;28;20222;-78
2023/05/14 07:07:27;;;;;;;9.03;8.23;;;;;;;11.84;100.00;98029.69;5095684;28;20225;-78
2023/05/14 07:09:53;;;;;;;9.27;8.37;;;;;;;11.78;100.00;98043.91;5095907;28;20204;-78
2023/05/14 07:12:19;;;;;;;8.83;7.93;;;;;;;11.77;100.00;98036.97;5095782;28;20212;-78
2023/05/14 07:14:46;;;;;;;8.80;8.00;;;;;;;11.94;100.00;98043.25;5095746;28;20211;-78
2023/05/14 07:17:12;;;;;;;8.07;7.37;;;;;;;11.85;100.00;98041.97;5095423;28;20241;-78
2023/05/14 07:19:39;;;;;;;8.30;7.60;;;;;;;11.98;100.00;98038.31;5095380;28;20669;-78
2023/05/14 07:22:05;;;;;;;8.73;7.97;;;;;;;12.24;100.00;98048.53;5095395;28;20213;-78
2023/05/14 07:24:31;;;;;;;8.50;7.70;;;;;;;12.14;100.00;98041.13;5095387;28;20209;-78
2023/05/14 07:26:58;;;;;;;8.97;8.20;;;;;;;12.24;100.00;98033.38;5095085;28;20582;-78
2023/05/14 07:29:24;;;;;;;8.63;7.93;;;;;;;12.32;100.00;98033.03;5095201;28;20218;-78
2023/05/14 07:31:51;;;;;;;9.17;8.37;;;;;;;12.35;100.00;98032.56;5095332;28;20210;-78
2023/05/14 07:34:18;;;;;;;9.03;8.23;;;;;;;12.47;100.00;98041.41;5095108;28;20547;-78
2023/05/14 07:36:44;;;;;;;8.53;7.83;;;;;;;12.45;100.00;98030.16;5094586;28;20234;-78
2023/05/14 07:39:11;;;;;;;9.73;8.73;;;;;;;12.52;100.00;98036.19;5095188;28;20196;-78
2023/05/14 07:41:37;;;;;;;9.03;8.13;;;;;;;12.66;100.00;98028.78;5095716;28;20564;-78
2023/05/14 07:44:04;;;;;;;10.27;9.37;;;;;;;12.78;100.00;98034.91;5096611;28;20204;-78
2023/05/14 07:46:30;;;;;;;8.83;7.73;;;;;;;13.11;100.00;98022.59;5096451;28;20228;-78
2023/05/14 07:48:56;;;;;;;9.27;8.33;;;;;;;13.02;100.00;98021.31;5096578;28;20224;-78
2023/05/14 07:51:23;;;;;;;8.47;7.83;;;;;;;13.21;100.00;98020.13;5096394;28;20202;-78
2023/05/14 07:53:49;;;;;;;9.43;8.63;;;;;;;13.16;100.00;98020.00;5096207;28;20212;-78
2023/05/14 07:56:15;;;;;;;9.37;8.47;;;;;;;13.22;100.00;98010.25;5094636;28;20736;-78
2023/05/14 07:58:42;;;;;;;9.07;8.33;;;;;;;13.39;100.00;98008.47;5094791;28;20207;-78
2023/05/14 08:01:08;;;;;;;8.57;7.87;;;;;;;13.56;100.00;98012.81;5095259;28;20230;-78
2023/05/14 08:03:34;;;;;;;9.37;7.30;;;;;;;13.70;100.00;98014.13;5095107;28;20218;-78
2023/05/14 08:06:01;;;;;;;8.93;8.13;;;;;;;14.05;100.00;98012.09;5094197;28;20239;-78
2023/05/14 08:08:27;;;;;;;9.50;8.60;;;;;;;14.15;100.00;98014.94;5094560;28;20231;-78
2023/05/14 08:10:53;;;;;;;8.57;7.60;;;;;;;14.00;100.00;98009.34;5094770;28;20204;-78
2023/05/14 08:13:20;;;;;;;8.80;8.10;;;;;;;14.06;100.00;98011.03;5094554;28;20206;-78
2023/05/14 08:15:46;;;;;;;9.47;8.60;;;;;;;13.78;100.00;98008.41;5094484;28;20243;-78
2023/05/14 08:18:13;;;;;;;8.67;7.87;;;;;;;13.92;100.00;98017.75;5094551;28;20200;-78
2023/05/14 08:20:39;;;;;;;8.87;8.07;;;;;;;14.30;100.00;98012.53;5094516;28;20204;-78
2023/05/14 08:23:06;;;;;;;8.63;7.70;;;;;;;14.14;100.00;98016.00;5093562;28;20215;-78
2023/05/14 08:25:33;;;;;;;9.37;8.47;;;;;;;14.29;100.00;98007.44;5094446;28;20234;-78
2023/05/14 08:28:00;;;;;;;9.43;8.63;;;;;;;14.15;100.00;98009.59;5094271;28;20228;-78
2023/05/14 08:30:27;;;;;;;9.53;8.53;;;;;;;14.35;100.00;98001.94;5094135;28;20295;-78
2023/05/14 08:32:53;;;;;;;10.70;9.23;;;;;;;14.59;100.00;98006.03;5094327;28;20212;-78
2023/05/14 08:35:20;;;;;;;9.57;8.50;;;;;;;14.65;100.00;98010.41;5094051;28;20224;-78
2023/05/14 08:37:46;;;;;;;9.97;9.07;;;;;;;14.51;100.00;98001.09;5093791;28;20207;-78
2023/05/14 08:40:13;;;;;;;10.13;9.13;;;;;;;14.74;100.00;98003.56;5093370;28;20203;-78
2023/05/14 08:42:40;;;;;;;9.27;8.50;;;;;;;14.75;100.00;97993.69;5094407;28;20234;-77
2023/05/14 08:45:17;;;;;;;9.33;8.53;;;;;;;14.79;100.00;97997.50;5094436;28;20295;-78
2023/05/14 08:47:48;;;;;;;8.90;8.10;;;;;;;14.92;100.00;97992.59;5095009;28;20219;-77
2023/05/14 08:50:15;;;;;;;10.40;9.30;;;;;;;15.13;100.00;97989.13;5095201;28;20199;-78
2023/05/14 08:52:42;;;;;;;9.57;8.77;;;;;;;15.36;100.00;97994.25;5096629;28;20204;-78
2023/05/14 08:55:10;;;;;;;9.77;8.97;;;;;;;15.64;100.00;97995.88;5095301;28;20208;-78
2023/05/14 08:57:36;;;;;;;9.53;8.73;;;;;;;15.26;100.00;97999.47;5094031;28;20206;-77
2023/05/14 09:00:07;;;;;;;10.53;9.53;;;;;;;15.31;100.00;97996.84;5094510;28;20206;-77
2023/05/14 09:02:34;;;;;;;10.27;9.37;;;;;;;14.69;100.00;98005.38;5094230;28;20192;-77
2023/05/14 09:05:02;;;;;;;10.60;9.70;;;;;;;14.48;100.00;97992.75;5093508;28;20208;-77
2023/05/14 09:07:29;;;;;;;10.17;9.37;;;;;;;14.66;100.00;97998.63;5097195;28;20253;-77
2023/05/14 09:09:55;;;;;;;10.10;9.20;;;;;;;15.19;100.00;98000.72;5097898;28;20256;-78
2023/05/14 09:12:22;;;;;;;11.00;10.00;;;;;;;15.13;100.00;98002.50;5098359;28;20200;-77
2023/05/14 09:14:50;;;;;;;10.07;9.17;;;;;;;15.05;100.00;98002.94;5097931;28;20199;-78
2023/05/14 09:17:17;;;;;;;10.17;9.30;;;;;;;15.22;100.00;97992.97;5096920;28;20243;-77
2023/05/14 09:19:46;;;;;;;10.07;9.27;;;;;;;15.35;100.00;97989.13;5097137;28;20211;-78
2023/05/14 09:22:14;;;;;;;11.20;9.57;;;;;;;15.46;100.00;97997.03;5097511;28;20211;-77
2023/05/14 09:24:41;;;;;;;10.20;9.30;;;;;;;14.99;100.00;97987.88;5096958;28;20283;-77
2023/05/14 09:27:08;;;;;;;10.13;9.13;;;;;;;15.49;100.00;97985.81;5097232;28;20261;-77
2023/05/14 09:29:35;;;;;;;10.50;9.60;;;;;;;15.86;100.00;97981.38;5096970;28;20228;-77
2023/05/14 09:32:04;;;;;;;9.73;8.83;;;;;;;16.20;100.00;97979.25;5097538;28;20577;-77
2023/05/14 09:34:36;;;;;;;9.90;9.00;;;;;;;15.95;100.00;97974.50;5097010;28;20215;-77
2023/05/14 09:37:04;;;;;;;10.20;9.23;;;;;;;16.43;100.00;97974.38;5097661;28;20324;-78
2023/05/14 09:39:33;;;;;;;10.77;9.77;;;;;;;16.65;100.00;97975.03;5097220;28;20200;-78
2023/05/14 09:42:00;;;;;;;10.37;9.33;;;;;;;15.97;100.00;97969.66;5097448;28;20219;-77
2023/05/14 09:44:27;;;;;;;9.23;8.20;;;;;;;16.55;100.00;97971.50;5098260;28;20219;-78
2023/05/14 09:46:55;;;;;;;8.77;7.87;;;;;;;16.25;93.37;97976.63;5099538;28;20227;-78
2023/05/14 09:49:22;;;;;;;7.43;6.73;;;;;;;16.09;91.95;97970.31;5098576;28;20219;-78
2023/05/14 09:51:49;;;;;;;7.10;6.50;;;;;;;16.07;93.88;97971.63;5098993;28;20204;-78
2023/05/14 09:54:16;;;;;;;6.90;6.40;;;;;;;16.17;94.60;97969.84;5098540;28;20204;-78
2023/05/14 09:56:43;;;;;;;7.10;6.50;;;;;;;16.13;95.98;97970.59;5098087;28;20265;-77
2023/05/14 09:59:10;;;;;;;7.37;6.67;;;;;;;16.16;90.99;97967.44;5097614;28;20218;-78
2023/05/14 10:01:37;;;;;;;7.53;6.93;;;;;;;16.24;95.31;97966.97;5097025;28;20222;-78
2023/05/14 10:04:07;;;;;;;7.20;6.47;;;;;;;16.45;95.68;97966.88;5097302;28;20211;-78
2023/05/14 10:06:37;;;;;;;6.97;6.27;;;;;;;16.26;92.05;97965.63;5097014;28;20219;-78
2023/05/14 10:09:07;;;;;;;6.33;5.83;;;;;;;16.49;91.08;97962.63;5097244;28;20227;-78
2023/05/14 10:11:37;;;;;;;6.83;6.23;;;;;;;16.23;94.00;97963.47;5097407;28;20184;-78
2023/05/14 10:14:52;;;;;;;6.80;6.20;;;;;;;16.36;95.04;97967.56;5097437;28;20244;-77
2023/05/14 10:17:21;;;;;;;7.20;6.50;;;;;;;16.64;90.46;97961.91;5063371;28;20236;-78
2023/05/14 10:19:53;;;;;;;6.97;6.47;;;;;;;16.74;87.12;97956.59;5096957;28;20200;-77
2023/05/14 10:22:23;;;;;;;6.87;6.27;;;;;;;16.58;92.47;97960.25;5097140;28;20650;-77
2023/05/14 10:24:51;;;;;;;6.40;5.80;;;;;;;16.44;89.86;97959.91;5097428;28;20188;-78
2023/05/14 10:27:20;;;;;;;7.13;6.43;;;;;;;16.69;93.62;97959.25;5097126;28;20223;-78
2023/05/14 10:29:54;;;;;;;6.90;6.20;;;;;;;17.10;94.30;97948.44;5097130;28;20224;-78
2023/05/14 10:32:25;;;;;;;7.27;6.67;;;;;;;17.25;90.26;97948.50;5098442;28;20200;-78
2023/05/14 10:34:53;;;;;;;8.17;7.37;;;;;;;17.46;84.15;97950.19;5097499;28;20209;-78
2023/05/14 10:37:23;;;;;;;7.57;6.70;;;;;;;17.22;87.69;97946.34;5096847;28;20239;-78
2023/05/14 10:39:52;;;;;;;6.60;6.10;;;;;;;17.32;91.38;97943.66;5097724;28;20202;-78
2023/05/14 10:42:34;;;;;;;6.93;6.33;;;;;;;16.88;87.77;97941.63;5097804;28;20229;-78
2023/05/14 10:45:06;;;;;;;7.00;6.50;;;;;;;16.87;91.26;97948.84;5098083;28;20249;-78
2023/05/14 10:47:33;;;;;;;6.93;6.33;;;;;;;17.33;91.57;97947.19;5098414;28;20281;-79
2023/05/14 10:50:03;;;;;;;6.60;6.00;;;;;;;17.56;84.86;97942.16;5097849;28;20224;-78
2023/05/14 10:52:30;;;;;;;6.60;6.10;;;;;;;16.93;85.49;97938.97;5097763;28;20635;-78
2023/05/14 10:55:02;;;;;;;6.90;6.40;;;;;;;17.11;87.07;97933.94;5097585;28;20208;-78
2023/05/14 10:57:31;;;;;;;7.33;6.73;;;;;;;16.80;88.82;97921.47;5096596;28;20555;-78
2023/05/14 11:00:00;;;;;;;7.97;7.27;;;;;;;16.73;95.50;97930.81;5097219;28;20516;-78
2023/05/14 11:02:28;;;;;;;7.83;7.13;;;;;;;16.39;96.64;97938.38;5096888;28;20226;-78
2023/05/14 11:05:02;;;;;;;7.53;6.83;;;;;;;16.21;96.30;97932.59;5096866;28;20204;-78
2023/05/14 11:07:31;;;;;;;8.10;6.60;;;;;;;16.13;96.17;97931.19;5096955;28;20527;-78
2023/05/14 11:10:06;;;;;;;8.00;7.30;;;;;;;16.11;94.81;97929.84;5096577;28;20228;-78
2023/05/14 11:12:35;;;;;;;7.53;6.87;;;;;;;16.38;98.83;97919.84;5096580;28;20211;-78
2023/05/14 11:15:03;;;;;;;7.70;7.00;;;;;;;16.41;96.02;97922.03;5096892;28;20208;-78
2023/05/14 11:17:31;;;;;;;7.50;6.77;;;;;;;16.98;96.13;97914.81;5097025;28;20563;-79
2023/05/14 11:19:58;;;;;;;6.87;6.37;;;;;;;17.11;88.63;97908.94;5098616;28;20203;-78
2023/05/14 11:22:25;;;;;;;6.93;6.33;;;;;;;16.38;94.65;97912.59;5096910;28;20216;-78
2023/05/14 11:24:52;;;;;;;6.93;6.33;;;;;;;16.56;98.11;97904.13;5097893;28;20214;-79